Airfield :
LOGIN :

Register | Disclaimer

   EN    FR    IT 

 










Legend :    VFR   Marginal VFR   IFR   Intensive IFR   Very Intensive IFR
Visi :
Ceiling :
>= 8 km
>= 3000ft
5 to 8 km
1000 to 3000 ft
1500m to 5 km
500 to 1000 ft
800 to 1500m
200 to 500 ft
< 800m
< 200 ft
Symbols :   Thunderstorms  Fog  Heavy snow  Heavy precipitations  Wind > 20 kt
SIGMETs :     Misc.  Thunderstorms  Icing  Turbulence  Mountain Waves  Volcanic Ashes







- Airport Elevation : 287 ft
- Download approach charts


LFRL - Lanveoc Poulmic

CURRENT METAR :
  • 161930Z AUTO 27007KT 9999 SCT032 SCT045 08/04 Q1010 TEMPO 3000 SHRA BKN020TCU

EXPIRED METARs :
  • 161900Z AUTO 29009KT CAVOK 07/04 Q1010 BECMG DZ
  • 161830Z AUTO 29009KT 9999 SCT024 BKN031 BKN160 08/06 Q1010 BECMG DZ
  • 161800Z AUTO 29008KT 9999 FEW017/// BKN042/// BKN049/// ///TCU 08/06 Q1010 BECMG DZ SCT020
  • 161730Z AUTO 29008KT 9999 FEW027 BKN050 OVC110 08/06 Q1009 BECMG DZ
  • 161700Z AUTO 30008KT 9999 FEW017/// BKN031/// BKN038/// ///TCU 08/06 Q1009 BECMG DZ SCT020

TAF TAF LFRL
Valid from the 16 at 12:00 until the 17 at 12:00 UTC


161100Z 1612/1712 21009KT 6000 DZ OVC009
TEMPO 1612/1614 3000 RADZ BKN005
BECMG 1614/1616 30012KT SCT020
TEMPO 1621/1712 30012G22KT 3000 SHRA BKN020TCU
No reported NOTAMs for that airfield.



MET'MAP, your aeronautical weather chart ! - Copyright ORBIFLY December 2007 - Disclaimer

ORBIFLY MET'MAP TEAM :

Programming & Development : Alexandra Zaïnal
Concept & Development : Baudouin d'Aumeries
Co-Development & Prog : Marc-Olivier Méhu
Technical & hardware support : Manuel Goepfert

Contact : metmap@orbifly.com




SOURCES & CREDITS :

   NOAA